sensor_id;sensor_type;location;lat;lon;timestamp;pressure;altitude;pressure_sealevel;temperature;humidity
39491;BME280;25175;50.140;18.990;2023-04-28T00:00:35;98965.22;;;4.44;54.57
39491;BME280;25175;50.140;18.990;2023-04-28T00:03:43;98959.50;;;4.40;54.30
39491;BME280;25175;50.140;18.990;2023-04-28T00:06:49;98957.22;;;4.37;54.46
39491;BME280;25175;50.140;18.990;2023-04-28T00:09:56;98957.06;;;4.39;54.41
39491;BME280;25175;50.140;18.990;2023-04-28T00:13:02;98956.56;;;4.35;54.22
39491;BME280;25175;50.140;18.990;2023-04-28T00:16:11;98962.75;;;4.34;54.37
39491;BME280;25175;50.140;18.990;2023-04-28T00:19:20;98944.00;;;4.23;54.67
39491;BME280;25175;50.140;18.990;2023-04-28T00:22:27;98961.41;;;4.30;54.56
39491;BME280;25175;50.140;18.990;2023-04-28T00:25:33;98970.19;;;4.29;54.61
39491;BME280;25175;50.140;18.990;2023-04-28T00:28:38;98948.22;;;4.24;54.80
39491;BME280;25175;50.140;18.990;2023-04-28T00:31:44;98944.69;;;4.25;54.68
39491;BME280;25175;50.140;18.990;2023-04-28T00:34:52;98815.75;;;3.33;54.32
39491;BME280;25175;50.140;18.990;2023-04-28T00:37:58;98956.44;;;4.45;53.94
39491;BME280;25175;50.140;18.990;2023-04-28T00:41:09;98934.47;;;4.31;54.06
39491;BME280;25175;50.140;18.990;2023-04-28T00:44:17;98950.25;;;4.46;54.07
39491;BME280;25175;50.140;18.990;2023-04-28T00:47:22;98952.38;;;4.42;53.92
39491;BME280;25175;50.140;18.990;2023-04-28T00:50:38;98927.94;;;4.19;54.14
39491;BME280;25175;50.140;18.990;2023-04-28T00:53:44;98963.09;;;4.39;54.37
39491;BME280;25175;50.140;18.990;2023-04-28T00:56:50;98954.47;;;4.39;54.35
39491;BME280;25175;50.140;18.990;2023-04-28T00:59:59;98962.94;;;4.41;53.83
39491;BME280;25175;50.140;18.990;2023-04-28T01:03:15;98954.47;;;4.31;54.21
39491;BME280;25175;50.140;18.990;2023-04-28T01:06:41;98962.41;;;4.29;54.45
39491;BME280;25175;50.140;18.990;2023-04-28T01:09:50;98957.69;;;4.25;54.68
39491;BME280;25175;50.140;18.990;2023-04-28T01:13:00;98955.38;;;4.22;54.62
39491;BME280;25175;50.140;18.990;2023-04-28T01:16:26;98972.91;;;4.20;54.78
39491;BME280;25175;50.140;18.990;2023-04-28T01:19:34;98966.69;;;4.13;54.92
39491;BME280;25175;50.140;18.990;2023-04-28T01:22:42;98960.03;;;4.10;55.27
39491;BME280;25175;50.140;18.990;2023-04-28T01:25:51;98965.41;;;4.09;55.26
39491;BME280;25175;50.140;18.990;2023-04-28T01:29:21;98968.13;;;4.07;54.85
39491;BME280;25175;50.140;18.990;2023-04-28T01:33:34;98963.78;;;4.08;54.60
39491;BME280;25175;50.140;18.990;2023-04-28T01:36:13;98955.00;;;4.09;54.35
39491;BME280;25175;50.140;18.990;2023-04-28T01:39:19;98954.66;;;4.04;54.44
39491;BME280;25175;50.140;18.990;2023-04-28T01:42:27;98954.16;;;4.00;54.48
39491;BME280;25175;50.140;18.990;2023-04-28T01:45:37;98942.38;;;3.88;54.67
39491;BME280;25175;50.140;18.990;2023-04-28T01:48:42;98962.56;;;3.94;54.48
39491;BME280;25175;50.140;18.990;2023-04-28T01:52:08;98962.03;;;3.91;54.83
39491;BME280;25175;50.140;18.990;2023-04-28T01:55:13;98958.13;;;3.87;54.70
39491;BME280;25175;50.140;18.990;2023-04-28T01:58:22;98950.41;;;3.77;54.97
39491;BME280;25175;50.140;18.990;2023-04-28T02:01:27;98957.78;;;3.82;55.08
39491;BME280;25175;50.140;18.990;2023-04-28T02:04:32;98966.31;;;3.74;55.02
39491;BME280;25175;50.140;18.990;2023-04-28T02:07:37;98958.97;;;3.70;55.21
39491;BME280;25175;50.140;18.990;2023-04-28T02:10:43;98952.25;;;3.59;55.40
39491;BME280;25175;50.140;18.990;2023-04-28T02:13:52;98943.66;;;3.59;54.83
39491;BME280;25175;50.140;18.990;2023-04-28T02:16:58;98958.63;;;3.65;55.03
39491;BME280;25175;50.140;18.990;2023-04-28T02:20:04;98958.78;;;3.63;54.90
39491;BME280;25175;50.140;18.990;2023-04-28T02:23:10;98955.34;;;3.63;54.59
39491;BME280;25175;50.140;18.990;2023-04-28T02:26:16;98947.63;;;3.45;54.76
39491;BME280;25175;50.140;18.990;2023-04-28T02:29:46;98963.69;;;3.49;55.05
39491;BME280;25175;50.140;18.990;2023-04-28T02:32:53;98962.00;;;3.40;55.55
39491;BME280;25175;50.140;18.990;2023-04-28T02:36:00;98905.66;;;3.07;55.41
39491;BME280;25175;50.140;18.990;2023-04-28T02:39:17;98951.94;;;3.37;55.60
39491;BME280;25175;50.140;18.990;2023-04-28T02:42:27;98924.59;;;3.25;55.33
39491;BME280;25175;50.140;18.990;2023-04-28T02:45:35;98949.78;;;3.32;55.36
39491;BME280;25175;50.140;18.990;2023-04-28T02:48:41;98948.31;;;3.30;55.33
39491;BME280;25175;50.140;18.990;2023-04-28T02:51:48;98950.38;;;3.26;55.25
39491;BME280;25175;50.140;18.990;2023-04-28T02:54:53;98937.38;;;3.18;55.41
39491;BME280;25175;50.140;18.990;2023-04-28T02:58:01;98936.88;;;3.15;55.51
39491;BME280;25175;50.140;18.990;2023-04-28T03:01:09;98938.78;;;3.13;55.55
39491;BME280;25175;50.140;18.990;2023-04-28T03:04:15;98942.66;;;3.09;55.63
39491;BME280;25175;50.140;18.990;2023-04-28T03:07:21;98942.66;;;3.09;55.75
39491;BME280;25175;50.140;18.990;2023-04-28T03:10:27;98915.91;;;2.56;55.56
39491;BME280;25175;50.140;18.990;2023-04-28T03:13:32;98529.06;;;0.58;55.59
39491;BME280;25175;50.140;18.990;2023-04-28T03:16:43;98946.78;;;3.02;56.06
39491;BME280;25175;50.140;18.990;2023-04-28T03:19:48;98951.44;;;2.98;56.18
39491;BME280;25175;50.140;18.990;2023-04-28T03:22:55;98949.16;;;2.95;55.77
39491;BME280;25175;50.140;18.990;2023-04-28T03:26:19;98950.94;;;2.95;56.00
39491;BME280;25175;50.140;18.990;2023-04-28T03:29:27;98912.22;;;2.76;55.93
39491;BME280;25175;50.140;18.990;2023-04-28T03:32:35;98943.28;;;2.93;56.26
39491;BME280;25175;50.140;18.990;2023-04-28T03:35:42;98931.53;;;2.81;56.12
39491;BME280;25175;50.140;18.990;2023-04-28T03:38:47;98898.94;;;2.61;56.29
39491;BME280;25175;50.140;18.990;2023-04-28T03:41:53;98941.06;;;2.81;56.31
39491;BME280;25175;50.140;18.990;2023-04-28T03:45:27;98939.63;;;2.78;56.61
39491;BME280;25175;50.140;18.990;2023-04-28T03:48:39;98938.94;;;2.76;57.00
39491;BME280;25175;50.140;18.990;2023-04-28T03:51:44;98925.31;;;2.74;57.12
39491;BME280;25175;50.140;18.990;2023-04-28T03:54:53;98934.19;;;2.72;57.57
39491;BME280;25175;50.140;18.990;2023-04-28T03:57:58;98931.59;;;2.72;57.48
39491;BME280;25175;50.140;18.990;2023-04-28T04:01:04;98929.00;;;2.72;57.95
39491;BME280;25175;50.140;18.990;2023-04-28T04:04:12;98931.47;;;2.73;58.08
39491;BME280;25175;50.140;18.990;2023-04-28T04:07:27;98937.16;;;2.77;58.28
39491;BME280;25175;50.140;18.990;2023-04-28T04:10:32;98915.38;;;2.70;58.33
39491;BME280;25175;50.140;18.990;2023-04-28T04:13:38;98937.09;;;2.86;58.21
39491;BME280;25175;50.140;18.990;2023-04-28T04:16:46;98934.63;;;2.50;58.57
39491;BME280;25175;50.140;18.990;2023-04-28T04:19:55;98945.22;;;2.91;58.72
39491;BME280;25175;50.140;18.990;2023-04-28T04:23:01;98946.84;;;2.92;59.26
39491;BME280;25175;50.140;18.990;2023-04-28T04:26:08;98952.88;;;2.93;59.64
39491;BME280;25175;50.140;18.990;2023-04-28T04:29:13;98959.38;;;2.97;59.47
39491;BME280;25175;50.140;18.990;2023-04-28T04:32:19;98957.31;;;3.00;59.66
39491;BME280;25175;50.140;18.990;2023-04-28T04:35:27;98942.50;;;2.93;59.56
39491;BME280;25175;50.140;18.990;2023-04-28T04:38:33;98947.16;;;3.07;59.73
39491;BME280;25175;50.140;18.990;2023-04-28T04:41:47;98940.72;;;3.11;59.84
39491;BME280;25175;50.140;18.990;2023-04-28T04:45:16;98933.91;;;3.10;59.56
39491;BME280;25175;50.140;18.990;2023-04-28T04:48:24;98949.22;;;3.21;59.68
39491;BME280;25175;50.140;18.990;2023-04-28T04:51:33;98948.91;;;3.24;59.56
39491;BME280;25175;50.140;18.990;2023-04-28T04:54:39;98941.50;;;3.29;59.03
39491;BME280;25175;50.140;18.990;2023-04-28T04:57:46;98923.16;;;3.22;59.15
39491;BME280;25175;50.140;18.990;2023-04-28T05:01:04;98922.53;;;3.28;59.17
39491;BME280;25175;50.140;18.990;2023-04-28T05:04:10;98947.44;;;3.47;58.78
39491;BME280;25175;50.140;18.990;2023-04-28T05:07:20;98948.63;;;3.52;58.25
39491;BME280;25175;50.140;18.990;2023-04-28T05:10:26;98952.25;;;3.59;58.28
39491;BME280;25175;50.140;18.990;2023-04-28T05:13:31;98950.97;;;3.63;58.05
39491;BME280;25175;50.140;18.990;2023-04-28T05:16:39;98945.19;;;3.69;58.52
39491;BME280;25175;50.140;18.990;2023-04-28T05:19:57;98947.41;;;3.82;58.71
39491;BME280;25175;50.140;18.990;2023-04-28T05:23:05;98958.78;;;3.89;58.13
39491;BME280;25175;50.140;18.990;2023-04-28T05:26:14;98948.28;;;3.98;57.95
39491;BME280;25175;50.140;18.990;2023-04-28T05:29:20;98939.53;;;3.99;57.50
39491;BME280;25175;50.140;18.990;2023-04-28T05:32:28;98950.81;;;4.16;57.30
39491;BME280;25175;50.140;18.990;2023-04-28T05:35:34;98950.53;;;4.27;57.48
39491;BME280;25175;50.140;18.990;2023-04-28T05:38:42;98949.44;;;4.37;57.33
39491;BME280;25175;50.140;18.990;2023-04-28T05:41:48;98937.59;;;4.43;57.66
39491;BME280;25175;50.140;18.990;2023-04-28T05:44:53;98931.63;;;4.50;57.80
39491;BME280;25175;50.140;18.990;2023-04-28T05:47:59;98926.63;;;4.65;57.02
39491;BME280;25175;50.140;18.990;2023-04-28T05:51:08;98950.69;;;4.83;57.10
39491;BME280;25175;50.140;18.990;2023-04-28T05:54:16;98944.69;;;4.82;57.71
39491;BME280;25175;50.140;18.990;2023-04-28T05:57:24;98942.56;;;4.94;57.55
39491;BME280;25175;50.140;18.990;2023-04-28T06:00:31;98945.84;;;5.12;57.17
39491;BME280;25175;50.140;18.990;2023-04-28T06:03:37;98945.50;;;5.23;56.66
39491;BME280;25175;50.140;18.990;2023-04-28T06:06:44;98900.66;;;5.05;56.69
39491;BME280;25175;50.140;18.990;2023-04-28T06:09:52;98944.03;;;5.36;55.84
39491;BME280;25175;50.140;18.990;2023-04-28T06:12:59;98944.22;;;5.43;56.55
39491;BME280;25175;50.140;18.990;2023-04-28T06:16:05;98950.38;;;5.50;56.60
39491;BME280;25175;50.140;18.990;2023-04-28T06:19:12;98936.41;;;5.51;56.57
39491;BME280;25175;50.140;18.990;2023-04-28T06:22:19;98954.47;;;5.68;56.64
39491;BME280;25175;50.140;18.990;2023-04-28T06:25:28;98946.66;;;5.76;56.32
39491;BME280;25175;50.140;18.990;2023-04-28T06:28:39;98941.41;;;5.84;56.39
39491;BME280;25175;50.140;18.990;2023-04-28T06:31:46;98937.00;;;5.93;56.29
39491;BME280;25175;50.140;18.990;2023-04-28T06:34:55;98931.78;;;6.01;56.36
39491;BME280;25175;50.140;18.990;2023-04-28T06:38:02;98912.56;;;5.94;56.50
39491;BME280;25175;50.140;18.990;2023-04-28T06:41:12;98955.28;;;6.23;56.54
39491;BME280;25175;50.140;18.990;2023-04-28T06:44:24;98955.06;;;6.33;56.22
39491;BME280;25175;50.140;18.990;2023-04-28T06:47:30;98920.56;;;6.31;55.86
39491;BME280;25175;50.140;18.990;2023-04-28T06:50:38;98936.44;;;6.52;56.43
39491;BME280;25175;50.140;18.990;2023-04-28T06:54:36;98934.72;;;6.67;55.59
39491;BME280;25175;50.140;18.990;2023-04-28T06:57:46;98926.16;;;6.81;55.36
39491;BME280;25175;50.140;18.990;2023-04-28T07:00:51;98917.16;;;6.83;54.83
39491;BME280;25175;50.140;18.990;2023-04-28T07:03:56;98923.19;;;7.06;54.72
39491;BME280;25175;50.140;18.990;2023-04-28T07:07:01;98917.06;;;7.22;54.88
39491;BME280;25175;50.140;18.990;2023-04-28T07:10:09;98921.69;;;7.34;53.26
39491;BME280;25175;50.140;18.990;2023-04-28T07:13:18;98917.69;;;7.46;54.16
39491;BME280;25175;50.140;18.990;2023-04-28T07:16:25;98903.66;;;7.62;54.45
39491;BME280;25175;50.140;18.990;2023-04-28T07:19:33;98913.94;;;7.78;54.04
39491;BME280;25175;50.140;18.990;2023-04-28T07:22:40;98910.16;;;7.95;53.18
39491;BME280;25175;50.140;18.990;2023-04-28T07:25:54;98914.00;;;8.13;53.19
39491;BME280;25175;50.140;18.990;2023-04-28T07:29:04;98901.34;;;8.31;52.17
39491;BME280;25175;50.140;18.990;2023-04-28T07:32:14;98905.56;;;8.47;50.86
39491;BME280;25175;50.140;18.990;2023-04-28T07:35:34;98902.41;;;8.66;50.79
39491;BME280;25175;50.140;18.990;2023-04-28T07:38:40;98903.78;;;8.83;50.29
39491;BME280;25175;50.140;18.990;2023-04-28T07:41:46;98881.94;;;8.97;48.91
39491;BME280;25175;50.140;18.990;2023-04-28T07:44:54;98886.75;;;9.14;49.06
39491;BME280;25175;50.140;18.990;2023-04-28T07:48:04;98885.91;;;9.35;47.59
39491;BME280;25175;50.140;18.990;2023-04-28T07:51:11;98883.63;;;9.53;46.99
39491;BME280;25175;50.140;18.990;2023-04-28T07:54:16;98875.44;;;9.69;46.93
39491;BME280;25175;50.140;18.990;2023-04-28T07:57:22;98884.28;;;9.89;46.25
39491;BME280;25175;50.140;18.990;2023-04-28T08:00:32;98881.94;;;10.07;45.83
39491;BME280;25175;50.140;18.990;2023-04-28T08:03:38;98844.63;;;10.05;45.54
39491;BME280;25175;50.140;18.990;2023-04-28T08:06:44;98883.09;;;10.38;42.61
39491;BME280;25175;50.140;18.990;2023-04-28T08:09:50;98875.63;;;10.48;43.41
39491;BME280;25175;50.140;18.990;2023-04-28T08:12:55;98876.88;;;10.65;42.77
39491;BME280;25175;50.140;18.990;2023-04-28T08:16:05;98803.59;;;10.38;42.63
39491;BME280;25175;50.140;18.990;2023-04-28T08:19:13;98868.69;;;11.01;42.76
39491;BME280;25175;50.140;18.990;2023-04-28T08:22:21;98861.22;;;11.11;39.72
39491;BME280;25175;50.140;18.990;2023-04-28T08:25:26;98857.22;;;11.21;40.38
39491;BME280;25175;50.140;18.990;2023-04-28T08:28:32;98834.75;;;11.32;39.48
39491;BME280;25175;50.140;18.990;2023-04-28T08:31:41;98847.88;;;11.51;38.83
39491;BME280;25175;50.140;18.990;2023-04-28T08:34:47;98843.59;;;11.63;38.71
39491;BME280;25175;50.140;18.990;2023-04-28T08:38:12;98842.75;;;11.76;38.19
39491;BME280;25175;50.140;18.990;2023-04-28T08:41:19;98835.63;;;11.96;38.69
39491;BME280;25175;50.140;18.990;2023-04-28T08:44:27;98836.81;;;12.13;36.98
39491;BME280;25175;50.140;18.990;2023-04-28T08:47:38;98837.00;;;12.18;36.40
39491;BME280;25175;50.140;18.990;2023-04-28T08:50:49;98841.97;;;12.32;36.69
39491;BME280;25175;50.140;18.990;2023-04-28T08:53:58;98824.91;;;12.41;35.70
39491;BME280;25175;50.140;18.990;2023-04-28T08:57:08;98836.41;;;12.53;35.93
39491;BME280;25175;50.140;18.990;2023-04-28T09:00:16;98825.22;;;12.58;35.78
39491;BME280;25175;50.140;18.990;2023-04-28T09:03:25;98822.72;;;12.69;35.64
39491;BME280;25175;50.140;18.990;2023-04-28T09:06:34;98815.69;;;12.88;36.16
39491;BME280;25175;50.140;18.990;2023-04-28T09:10:00;98811.38;;;13.00;34.80
39491;BME280;25175;50.140;18.990;2023-04-28T09:13:31;98806.56;;;13.15;33.98
39491;BME280;25175;50.140;18.990;2023-04-28T09:16:40;98821.53;;;13.21;32.93
39491;BME280;25175;50.140;18.990;2023-04-28T09:20:42;98814.53;;;13.33;33.89
39491;BME280;25175;50.140;18.990;2023-04-28T09:27:49;98797.81;;;13.63;33.32
39491;BME280;25175;50.140;18.990;2023-04-28T09:31:01;98796.59;;;13.77;33.57
39491;BME280;25175;50.140;18.990;2023-04-28T09:34:07;98796.88;;;13.94;33.10
39491;BME280;25175;50.140;18.990;2023-04-28T09:37:22;98789.66;;;14.01;32.53
39491;BME280;25175;50.140;18.990;2023-04-28T09:40:32;98784.88;;;14.09;33.13
39491;BME280;25175;50.140;18.990;2023-04-28T09:44:12;98780.69;;;14.20;31.45
39491;BME280;25175;50.140;18.990;2023-04-28T09:47:23;98774.06;;;14.29;31.89
39491;BME280;25175;50.140;18.990;2023-04-28T09:50:39;98780.50;;;14.33;31.54
39491;BME280;25175;50.140;18.990;2023-04-28T09:53:48;98773.97;;;14.35;31.12
39491;BME280;25175;50.140;18.990;2023-04-28T09:56:55;98765.59;;;14.38;30.52
39491;BME280;25175;50.140;18.990;2023-04-28T10:00:04;98731.91;;;14.22;31.19
39491;BME280;25175;50.140;18.990;2023-04-28T10:03:15;98750.97;;;14.54;32.95
39491;BME280;25175;50.140;18.990;2023-04-28T10:06:43;98746.16;;;14.73;32.16
39491;BME280;25175;50.140;18.990;2023-04-28T10:09:51;98741.97;;;14.84;31.26
39491;BME280;25175;50.140;18.990;2023-04-28T10:12:59;98734.63;;;14.98;31.55
39491;BME280;25175;50.140;18.990;2023-04-28T10:16:07;98743.34;;;15.10;31.12
39491;BME280;25175;50.140;18.990;2023-04-28T10:19:49;98728.53;;;15.09;29.88
39491;BME280;25175;50.140;18.990;2023-04-28T10:23:16;98723.25;;;15.09;31.28
39491;BME280;25175;50.140;18.990;2023-04-28T10:27:03;98725.41;;;15.12;30.21
39491;BME280;25175;50.140;18.990;2023-04-28T10:30:11;98705.28;;;14.99;29.82
39491;BME280;25175;50.140;18.990;2023-04-28T10:33:23;98698.88;;;14.84;29.92
39491;BME280;25175;50.140;18.990;2023-04-28T10:36:49;98715.31;;;14.97;30.32
39491;BME280;25175;50.140;18.990;2023-04-28T10:48:15;98687.63;;;15.50;30.75
39491;BME280;25175;50.140;18.990;2023-04-28T10:51:28;98668.91;;;15.40;29.78
39491;BME280;25175;50.140;18.990;2023-04-28T10:54:39;98659.69;;;15.54;29.35
39491;BME280;25175;50.140;18.990;2023-04-28T10:57:44;98670.59;;;15.70;29.37
39491;BME280;25175;50.140;18.990;2023-04-28T11:00:53;98669.47;;;15.82;29.58
39491;BME280;25175;50.140;18.990;2023-04-28T11:04:05;98648.91;;;15.84;28.69
39491;BME280;25175;50.140;18.990;2023-04-28T11:07:15;98662.81;;;16.08;28.82
39491;BME280;25175;50.140;18.990;2023-04-28T11:10:20;98654.38;;;16.10;27.83
39491;BME280;25175;50.140;18.990;2023-04-28T11:13:26;98647.50;;;16.09;28.39
39491;BME280;25175;50.140;18.990;2023-04-28T11:16:33;98645.47;;;16.16;27.19
39491;BME280;25175;50.140;18.990;2023-04-28T11:20:12;98641.19;;;16.27;27.54
39491;BME280;25175;50.140;18.990;2023-04-28T11:23:18;98642.69;;;16.39;27.84
39491;BME280;25175;50.140;18.990;2023-04-28T11:29:51;98633.72;;;16.57;26.74
39491;BME280;25175;50.140;18.990;2023-04-28T11:33:10;98629.56;;;16.61;28.03
39491;BME280;25175;50.140;18.990;2023-04-28T11:39:46;98630.09;;;16.63;26.92
39491;BME280;25175;50.140;18.990;2023-04-28T11:42:55;98622.53;;;16.71;27.61
39491;BME280;25175;50.140;18.990;2023-04-28T11:46:03;98628.53;;;16.83;28.79
39491;BME280;25175;50.140;18.990;2023-04-28T11:49:11;98621.22;;;16.90;27.50
39491;BME280;25175;50.140;18.990;2023-04-28T11:52:21;98625.28;;;16.98;27.88
39491;BME280;25175;50.140;18.990;2023-04-28T11:55:28;98623.81;;;17.07;27.64
39491;BME280;25175;50.140;18.990;2023-04-28T11:58:37;98617.22;;;17.09;27.12
39491;BME280;25175;50.140;18.990;2023-04-28T12:01:56;98623.66;;;17.13;27.73
39491;BME280;25175;50.140;18.990;2023-04-28T12:05:05;98615.81;;;17.23;28.42
39491;BME280;25175;50.140;18.990;2023-04-28T12:08:27;98609.34;;;17.36;27.02
39491;BME280;25175;50.140;18.990;2023-04-28T12:11:34;98602.31;;;17.46;26.84
39491;BME280;25175;50.140;18.990;2023-04-28T12:18:18;98599.06;;;17.66;26.53
39491;BME280;25175;50.140;18.990;2023-04-28T12:25:02;98578.50;;;17.51;26.94
39491;BME280;25175;50.140;18.990;2023-04-28T12:32:00;98570.31;;;17.58;27.07
39491;BME280;25175;50.140;18.990;2023-04-28T12:35:07;98570.13;;;17.64;26.61
39491;BME280;25175;50.140;18.990;2023-04-28T12:38:14;98551.25;;;17.61;27.50
39491;BME280;25175;50.140;18.990;2023-04-28T12:41:22;98557.19;;;17.73;28.31
39491;BME280;25175;50.140;18.990;2023-04-28T12:44:32;98547.69;;;17.77;25.61
39491;BME280;25175;50.140;18.990;2023-04-28T12:47:39;98543.09;;;17.72;26.57
39491;BME280;25175;50.140;18.990;2023-04-28T12:50:44;98541.81;;;17.75;26.41
39491;BME280;25175;50.140;18.990;2023-04-28T12:53:50;98545.03;;;17.77;26.26
39491;BME280;25175;50.140;18.990;2023-04-28T12:57:01;98550.09;;;17.83;26.94
39491;BME280;25175;50.140;18.990;2023-04-28T13:00:07;98544.84;;;17.88;25.84
39491;BME280;25175;50.140;18.990;2023-04-28T13:03:18;98532.38;;;17.89;25.01
39491;BME280;25175;50.140;18.990;2023-04-28T13:06:23;98526.88;;;17.95;25.50
39491;BME280;25175;50.140;18.990;2023-04-28T13:09:31;98509.28;;;17.89;25.54
39491;BME280;25175;50.140;18.990;2023-04-28T13:12:41;98530.88;;;17.98;25.40
39491;BME280;25175;50.140;18.990;2023-04-28T13:15:47;98522.91;;;17.98;25.55
39491;BME280;25175;50.140;18.990;2023-04-28T13:18:54;98519.97;;;17.99;25.87
39491;BME280;25175;50.140;18.990;2023-04-28T13:22:00;98512.81;;;18.00;25.45
39491;BME280;25175;50.140;18.990;2023-04-28T13:25:08;98506.31;;;17.86;24.90
39491;BME280;25175;50.140;18.990;2023-04-28T13:28:17;98499.72;;;17.88;25.99
39491;BME280;25175;50.140;18.990;2023-04-28T13:31:22;98484.78;;;17.82;26.47
39491;BME280;25175;50.140;18.990;2023-04-28T13:38:08;98498.72;;;17.99;25.73
39491;BME280;25175;50.140;18.990;2023-04-28T13:41:14;98503.47;;;17.92;25.07
39491;BME280;25175;50.140;18.990;2023-04-28T13:44:23;98498.41;;;17.91;26.16
39491;BME280;25175;50.140;18.990;2023-04-28T13:47:29;98498.41;;;17.91;25.34
39491;BME280;25175;50.140;18.990;2023-04-28T13:50:38;98490.72;;;17.89;25.92
39491;BME280;25175;50.140;18.990;2023-04-28T13:53:44;98483.31;;;17.96;25.90
39491;BME280;25175;50.140;18.990;2023-04-28T13:56:55;98468.84;;;18.09;26.30
39491;BME280;25175;50.140;18.990;2023-04-28T14:00:06;98470.50;;;18.20;26.64
39491;BME280;25175;50.140;18.990;2023-04-28T14:03:16;98475.59;;;18.31;26.54
39491;BME280;25175;50.140;18.990;2023-04-28T14:06:43;98474.03;;;18.35;25.60
39491;BME280;25175;50.140;18.990;2023-04-28T14:09:48;98473.22;;;18.35;25.78
39491;BME280;25175;50.140;18.990;2023-04-28T14:12:58;98471.13;;;18.37;26.65
39491;BME280;25175;50.140;18.990;2023-04-28T14:16:06;98442.97;;;18.36;27.66
39491;BME280;25175;50.140;18.990;2023-04-28T14:19:13;98461.13;;;18.59;26.01
39491;BME280;25175;50.140;18.990;2023-04-28T14:22:18;98456.56;;;18.54;25.89
39491;BME280;25175;50.140;18.990;2023-04-28T14:25:37;98457.91;;;18.57;25.48
39491;BME280;25175;50.140;18.990;2023-04-28T14:28:43;98456.06;;;18.57;26.28
39491;BME280;25175;50.140;18.990;2023-04-28T14:31:52;98444.34;;;18.53;26.06
39491;BME280;25175;50.140;18.990;2023-04-28T14:34:57;98444.88;;;18.50;25.68
39491;BME280;25175;50.140;18.990;2023-04-28T14:38:09;98437.94;;;18.44;25.16
39491;BME280;25175;50.140;18.990;2023-04-28T14:44:45;98442.09;;;18.25;25.10
39491;BME280;25175;50.140;18.990;2023-04-28T14:47:53;98437.81;;;18.19;26.02
39491;BME280;25175;50.140;18.990;2023-04-28T14:51:03;98431.19;;;18.22;26.10
39491;BME280;25175;50.140;18.990;2023-04-28T14:54:17;98434.38;;;18.24;26.44
39491;BME280;25175;50.140;18.990;2023-04-28T14:57:24;98444.78;;;18.30;25.59
39491;BME280;25175;50.140;18.990;2023-04-28T15:00:30;98433.91;;;18.32;26.33
39491;BME280;25175;50.140;18.990;2023-04-28T15:03:39;98433.66;;;18.33;26.07
39491;BME280;25175;50.140;18.990;2023-04-28T15:06:44;98433.63;;;18.38;26.01
39491;BME280;25175;50.140;18.990;2023-04-28T15:09:57;98418.22;;;18.30;25.71
39491;BME280;25175;50.140;18.990;2023-04-28T15:13:06;98423.50;;;18.25;25.87
39491;BME280;25175;50.140;18.990;2023-04-28T15:16:11;98423.69;;;18.09;25.33
39491;BME280;25175;50.140;18.990;2023-04-28T15:19:22;98428.63;;;17.95;25.78
39491;BME280;25175;50.140;18.990;2023-04-28T15:22:27;98422.75;;;17.93;26.15
39491;BME280;25175;50.140;18.990;2023-04-28T15:25:33;98433.09;;;17.90;25.98
39491;BME280;25175;50.140;18.990;2023-04-28T15:28:41;98421.69;;;17.89;26.20
39491;BME280;25175;50.140;18.990;2023-04-28T15:31:47;98366.03;;;17.63;26.46
39491;BME280;25175;50.140;18.990;2023-04-28T15:35:22;98411.34;;;17.93;26.63
39491;BME280;25175;50.140;18.990;2023-04-28T15:38:44;98413.16;;;17.87;26.64
39491;BME280;25175;50.140;18.990;2023-04-28T15:42:05;98406.47;;;17.80;26.50
39491;BME280;25175;50.140;18.990;2023-04-28T15:45:11;98409.66;;;17.77;26.59
39491;BME280;25175;50.140;18.990;2023-04-28T15:48:35;98397.66;;;17.69;26.49
39491;BME280;25175;50.140;18.990;2023-04-28T15:51:45;98393.63;;;17.62;26.57
39491;BME280;25175;50.140;18.990;2023-04-28T15:54:50;98382.72;;;17.58;26.94
39491;BME280;25175;50.140;18.990;2023-04-28T15:58:00;98385.88;;;17.55;26.93
39491;BME280;25175;50.140;18.990;2023-04-28T16:01:08;98380.56;;;17.55;27.26
39491;BME280;25175;50.140;18.990;2023-04-28T16:04:18;98383.22;;;17.55;27.27
39491;BME280;25175;50.140;18.990;2023-04-28T16:11:35;98373.25;;;17.36;27.86
39491;BME280;25175;50.140;18.990;2023-04-28T16:14:41;98383.88;;;17.36;27.80
39491;BME280;25175;50.140;18.990;2023-04-28T16:17:47;98378.56;;;17.36;27.81
39491;BME280;25175;50.140;18.990;2023-04-28T16:20:53;98385.50;;;17.37;28.03
39491;BME280;25175;50.140;18.990;2023-04-28T16:24:02;98383.53;;;17.27;27.58
39491;BME280;25175;50.140;18.990;2023-04-28T16:27:09;98373.41;;;17.24;27.50
39491;BME280;25175;50.140;18.990;2023-04-28T16:30:17;98339.28;;;17.01;27.79
39491;BME280;25175;50.140;18.990;2023-04-28T16:33:26;98378.47;;;17.26;28.26
39491;BME280;25175;50.140;18.990;2023-04-28T16:36:35;98365.47;;;17.24;27.82
39491;BME280;25175;50.140;18.990;2023-04-28T16:39:43;98368.59;;;17.21;28.12
39491;BME280;25175;50.140;18.990;2023-04-28T16:42:50;98360.13;;;17.19;28.18
39491;BME280;25175;50.140;18.990;2023-04-28T16:45:55;98352.94;;;17.20;28.51
39491;BME280;25175;50.140;18.990;2023-04-28T16:49:02;98354.25;;;17.17;28.70
39491;BME280;25175;50.140;18.990;2023-04-28T16:52:07;98361.47;;;17.22;28.88
39491;BME280;25175;50.140;18.990;2023-04-28T16:55:25;98350.56;;;17.18;28.71
39491;BME280;25175;50.140;18.990;2023-04-28T16:58:30;98358.19;;;17.10;28.86
39491;BME280;25175;50.140;18.990;2023-04-28T17:01:36;98362.63;;;17.04;28.15
39491;BME280;25175;50.140;18.990;2023-04-28T17:04:57;98353.03;;;16.98;28.82
39491;BME280;25175;50.140;18.990;2023-04-28T17:08:06;98346.03;;;16.87;28.51
39491;BME280;25175;50.140;18.990;2023-04-28T17:11:15;98350.28;;;16.88;28.65
39491;BME280;25175;50.140;18.990;2023-04-28T17:14:21;98353.69;;;16.84;28.25
39491;BME280;25175;50.140;18.990;2023-04-28T17:17:27;98349.94;;;16.80;28.19
39491;BME280;25175;50.140;18.990;2023-04-28T17:20:34;98349.88;;;16.75;28.43